createdAt,value
2023-05-24T00:01:27.452Z,49.66
2023-05-24T00:06:29.080Z,49.72
2023-05-24T00:11:31.110Z,50.07
2023-05-24T00:16:32.790Z,50.15
2023-05-24T00:21:36.736Z,50.01
2023-05-24T00:26:38.407Z,50.20
2023-05-24T00:31:39.912Z,50.30
2023-05-24T00:36:41.378Z,50.75
2023-05-24T00:41:43.346Z,50.35
2023-05-24T00:46:45.270Z,50.55
2023-05-24T00:51:46.983Z,50.72
2023-05-24T00:56:48.858Z,51.67
2023-05-24T01:01:50.515Z,50.90
2023-05-24T01:07:00.819Z,51.12
2023-05-24T01:12:08.514Z,51.09
2023-05-24T01:17:19.171Z,51.04
2023-05-24T01:22:45.545Z,50.79
2023-05-24T01:27:47.894Z,50.82
2023-05-24T01:32:49.602Z,50.60
2023-05-24T01:37:51.081Z,50.63
2023-05-24T01:42:59.644Z,50.89
2023-05-24T01:48:24.588Z,50.73
2023-05-24T01:53:32.700Z,51.00
2023-05-24T01:58:36.444Z,50.69
2023-05-24T02:03:38.591Z,50.73
2023-05-24T02:08:39.977Z,50.58
2023-05-24T02:13:41.529Z,51.18
2023-05-24T02:18:44.812Z,50.91
2023-05-24T02:23:46.439Z,50.15
2023-05-24T02:28:48.235Z,49.89
2023-05-24T02:33:49.672Z,49.46
2023-05-24T02:38:52.274Z,49.95
2023-05-24T02:43:53.643Z,50.41
2023-05-24T02:48:55.074Z,49.94
2023-05-24T02:53:56.691Z,49.79
2023-05-24T02:58:58.159Z,50.01
2023-05-24T03:04:00.691Z,50.06
2023-05-24T03:09:02.505Z,49.96
2023-05-24T03:14:04.236Z,50.39
2023-05-24T03:19:08.388Z,50.45
2023-05-24T03:24:13.299Z,50.54
2023-05-24T03:29:14.812Z,50.52
2023-05-24T03:34:16.304Z,50.45
2023-05-24T03:39:17.714Z,50.63
2023-05-24T03:44:19.399Z,50.40
2023-05-24T03:49:20.818Z,50.49
2023-05-24T03:54:22.407Z,50.05
2023-05-24T03:59:23.898Z,50.13
2023-05-24T04:04:25.701Z,50.48
2023-05-24T04:09:27.195Z,50.06
2023-05-24T04:14:28.625Z,50.30
2023-05-24T04:19:30.008Z,50.04
2023-05-24T04:24:31.708Z,49.95
2023-05-24T04:29:33.225Z,50.07
2023-05-24T04:34:35.706Z,50.41
2023-05-24T04:39:37.098Z,50.73
2023-05-24T04:44:40.526Z,51.32
2023-05-24T04:49:42.110Z,50.44
2023-05-24T04:54:44.348Z,52.39
2023-05-24T04:59:46.097Z,51.79
2023-05-24T05:04:47.640Z,51.99
2023-05-24T05:09:49.147Z,51.75
2023-05-24T05:14:50.757Z,51.17
2023-05-24T05:19:52.264Z,51.94
2023-05-24T05:24:54.065Z,51.55
2023-05-24T05:29:55.631Z,52.36
2023-05-24T05:34:57.332Z,53.17
2023-05-24T05:39:58.818Z,52.15
2023-05-24T05:45:00.579Z,52.35
2023-05-24T05:50:02.043Z,52.21
2023-05-24T05:55:03.929Z,51.48
2023-05-24T06:00:05.933Z,51.54
2023-05-24T06:05:07.901Z,50.50
2023-05-24T06:10:09.738Z,50.39
2023-05-24T06:15:12.311Z,50.43
2023-05-24T06:20:16.160Z,49.61
2023-05-24T06:25:19.286Z,49.54
2023-05-24T06:30:20.936Z,49.97
2023-05-24T06:35:22.921Z,49.78
2023-05-24T06:40:24.931Z,49.33
2023-05-24T06:45:26.814Z,48.91
2023-05-24T06:50:28.616Z,48.53
2023-05-24T06:55:30.045Z,49.11
2023-05-24T07:00:32.320Z,47.78
2023-05-24T07:05:33.916Z,47.35
2023-05-24T07:10:35.387Z,47.71
2023-05-24T07:15:37.413Z,46.86
2023-05-24T07:20:39.348Z,46.52
2023-05-24T07:25:41.958Z,46.27
2023-05-24T07:30:43.425Z,47.01
2023-05-24T07:35:51.221Z,47.47
2023-05-24T07:40:53.529Z,46.34
2023-05-24T07:45:55.446Z,46.60
2023-05-24T07:50:57.045Z,47.09
2023-05-24T07:55:59.923Z,46.18
2023-05-24T08:01:01.688Z,46.18
2023-05-24T08:06:04.152Z,46.73
2023-05-24T08:11:06.052Z,46.63
2023-05-24T08:16:07.688Z,46.84
2023-05-24T08:21:10.855Z,46.89
2023-05-24T08:26:12.862Z,47.35
2023-05-24T08:31:14.504Z,48.13
2023-05-24T08:36:18.029Z,47.45
2023-05-24T08:41:19.484Z,47.35
2023-05-24T08:46:21.438Z,47.24
2023-05-24T08:51:24.289Z,44.73
2023-05-24T08:56:30.084Z,45.68
2023-05-24T09:01:34.523Z,44.99
2023-05-24T09:06:37.088Z,45.69
2023-05-24T09:11:41.133Z,44.91
2023-05-24T09:16:44.541Z,44.64
2023-05-24T09:21:46.808Z,43.06
2023-05-24T09:26:51.801Z,43.76
2023-05-24T09:31:56.064Z,43.02
2023-05-24T09:36:57.595Z,42.70
2023-05-24T09:41:59.228Z,42.91
2023-05-24T09:47:06.784Z,45.17
2023-05-24T09:52:08.471Z,43.43
2023-05-24T09:57:11.382Z,42.06
2023-05-24T10:02:13.005Z,41.43
2023-05-24T10:07:15.573Z,41.18
2023-05-24T10:12:17.474Z,40.40
2023-05-24T10:17:18.938Z,38.78
2023-05-24T10:22:23.140Z,39.29
2023-05-24T10:27:30.465Z,38.37
2023-05-24T10:32:35.846Z,38.96
2023-05-24T10:37:37.362Z,38.42
2023-05-24T10:42:38.978Z,37.92
2023-05-24T10:47:41.061Z,36.46
2023-05-24T10:52:42.586Z,35.90
2023-05-24T10:57:44.111Z,36.49
2023-05-24T11:02:49.651Z,36.32
2023-05-24T11:07:59.492Z,34.09
2023-05-24T11:13:04.333Z,35.87
2023-05-24T11:18:15.420Z,35.89
2023-05-24T11:23:17.167Z,35.52
2023-05-24T11:28:19.021Z,33.61
2023-05-24T11:33:23.393Z,33.10
2023-05-24T11:38:26.215Z,33.93
2023-05-24T11:43:30.902Z,33.81
2023-05-24T11:48:32.746Z,33.31
2023-05-24T11:53:34.383Z,32.00
2023-05-24T11:58:45.710Z,33.06
2023-05-24T12:03:47.266Z,33.26
2023-05-24T12:08:49.704Z,34.78
2023-05-24T12:13:51.372Z,34.41
2023-05-24T12:19:03.823Z,33.63
2023-05-24T12:24:10.796Z,34.07
2023-05-24T12:29:13.334Z,33.74
2023-05-24T12:34:19.745Z,33.03
2023-05-24T12:39:27.195Z,32.65
2023-05-24T12:44:31.571Z,32.42
2023-05-24T12:49:33.189Z,32.11
2023-05-24T12:54:34.661Z,32.14
2023-05-24T12:59:36.888Z,32.49
2023-05-24T13:04:38.483Z,32.31
2023-05-24T13:09:39.902Z,32.36
2023-05-24T13:14:41.390Z,32.84
2023-05-24T13:19:43.041Z,31.87
2023-05-24T13:24:44.458Z,32.66
2023-05-24T13:29:59.733Z,32.43
2023-05-24T13:35:02.004Z,32.03
2023-05-24T13:40:04.267Z,31.65
2023-05-24T13:45:06.285Z,31.81
2023-05-24T13:50:09.910Z,31.89
2023-05-24T13:55:11.709Z,32.29
2023-05-24T14:00:14.252Z,36.51
2023-05-24T14:05:25.673Z,34.26
2023-05-24T14:10:28.647Z,33.59
2023-05-24T14:15:30.344Z,33.24
2023-05-24T14:20:32.747Z,33.13
2023-05-24T14:25:34.436Z,33.67
2023-05-24T14:30:37.781Z,33.41
2023-05-24T14:35:40.215Z,33.37
2023-05-24T14:40:42.268Z,34.33
2023-05-24T14:45:44.074Z,33.35
2023-05-24T14:50:45.721Z,33.03
2023-05-24T14:55:47.311Z,32.69
2023-05-24T15:00:49.043Z,32.36
2023-05-24T15:05:51.607Z,32.20
2023-05-24T15:10:53.137Z,32.95
2023-05-24T15:15:56.790Z,32.79
2023-05-24T15:20:58.160Z,32.19
2023-05-24T15:25:59.600Z,31.64
2023-05-24T15:31:02.009Z,31.33
2023-05-24T15:36:04.453Z,31.01
2023-05-24T15:41:05.843Z,31.75
2023-05-24T15:46:07.186Z,32.21
2023-05-24T15:56:13.214Z,32.27
2023-05-24T16:01:15.118Z,31.64
2023-05-24T16:06:16.634Z,31.85
2023-05-24T16:11:20.271Z,32.29
2023-05-24T16:16:23.550Z,32.14
2023-05-24T16:21:25.092Z,31.67
2023-05-24T16:26:27.093Z,32.14
2023-05-24T16:31:31.072Z,32.58
2023-05-24T16:36:32.850Z,32.38
2023-05-24T16:41:37.883Z,32.86
2023-05-24T16:46:39.325Z,33.04
2023-05-24T16:51:40.967Z,33.84
2023-05-24T16:56:42.541Z,34.72
2023-05-24T17:01:45.293Z,33.51
2023-05-24T17:06:47.117Z,33.55
2023-05-24T17:11:50.041Z,34.18
2023-05-24T17:16:52.167Z,33.33
2023-05-24T17:21:53.475Z,33.19
2023-05-24T17:26:55.297Z,34.17
2023-05-24T17:31:56.899Z,33.74
2023-05-24T17:36:58.336Z,34.05
2023-05-24T17:41:59.642Z,34.27
2023-05-24T17:47:01.963Z,34.57
2023-05-24T17:52:03.486Z,35.23
2023-05-24T17:57:05.809Z,35.48
2023-05-24T18:02:07.478Z,35.44
2023-05-24T18:07:08.802Z,35.94
2023-05-24T18:12:12.102Z,36.39
2023-05-24T18:17:14.671Z,36.86
2023-05-24T18:22:16.470Z,36.85
2023-05-24T18:27:17.913Z,36.94
2023-05-24T18:32:19.380Z,37.00
2023-05-24T18:37:23.118Z,37.79
2023-05-24T18:42:24.853Z,38.24
2023-05-24T18:47:27.336Z,39.42
2023-05-24T18:52:28.837Z,39.64
2023-05-24T18:57:31.167Z,40.23
2023-05-24T19:02:38.309Z,40.26
2023-05-24T19:07:41.689Z,40.81
2023-05-24T19:12:43.079Z,41.38
2023-05-24T19:17:44.542Z,41.44
2023-05-24T19:22:46.031Z,41.10
2023-05-24T19:27:59.296Z,41.45
2023-05-24T19:33:01.862Z,42.13
2023-05-24T19:38:03.900Z,42.35
2023-05-24T19:43:05.427Z,42.78
2023-05-24T19:48:09.374Z,43.53
2023-05-24T19:53:11.093Z,43.76
2023-05-24T19:58:12.491Z,43.77
2023-05-24T20:03:13.967Z,44.14
2023-05-24T20:08:16.697Z,44.48
2023-05-24T20:13:18.130Z,44.54
2023-05-24T20:18:19.572Z,45.80
2023-05-24T20:23:21.496Z,46.10
2023-05-24T20:28:30.594Z,46.06
2023-05-24T20:33:38.386Z,46.26
2023-05-24T20:38:40.040Z,46.71
2023-05-24T20:43:41.475Z,46.96
2023-05-24T20:48:43.544Z,47.57
2023-05-24T20:53:45.821Z,47.73
2023-05-24T20:58:49.170Z,47.65
2023-05-24T21:03:50.551Z,47.66
2023-05-24T21:08:51.902Z,47.88
2023-05-24T21:13:53.611Z,47.56
2023-05-24T21:18:54.935Z,48.02
2023-05-24T21:23:56.675Z,48.52
2023-05-24T21:28:58.113Z,48.75
2023-05-24T21:33:59.435Z,48.91
2023-05-24T21:39:03.775Z,48.85
2023-05-24T21:44:07.244Z,48.75
2023-05-24T21:49:08.593Z,48.92
2023-05-24T21:54:10.031Z,48.95
2023-05-24T21:59:11.588Z,49.17
2023-05-24T22:04:13.071Z,49.27
2023-05-24T22:09:14.619Z,49.56
2023-05-24T22:14:16.082Z,49.77
2023-05-24T22:19:25.269Z,49.78
2023-05-24T22:24:33.667Z,50.29
2023-05-24T22:29:35.858Z,50.23
2023-05-24T22:34:37.287Z,50.14
2023-05-24T22:39:39.058Z,50.68
2023-05-24T22:44:40.449Z,50.60
2023-05-24T22:49:42.940Z,50.99
2023-05-24T22:54:44.562Z,51.08
2023-05-24T22:59:46.397Z,52.63
2023-05-24T23:04:48.304Z,52.95
2023-05-24T23:09:49.963Z,52.67
2023-05-24T23:14:54.107Z,53.05
2023-05-24T23:19:55.579Z,53.61
2023-05-24T23:24:57.118Z,54.37
2023-05-24T23:29:58.448Z,55.31
2023-05-24T23:35:00.008Z,55.05
2023-05-24T23:40:06.211Z,55.44
2023-05-24T23:45:07.807Z,57.03
2023-05-24T23:50:09.962Z,57.24
2023-05-24T23:55:11.468Z,56.44
